Terminal Aerodrome Forecast
Issued by NWS Bismarck, ND

Home | Current Version | Previous Version | Graphics & Text | Print | Product List | Glossary On
Versions: 1 2 3 4 5 6 7 8 9 10 11 12 13 14 15 16 17 18 19 20 21 22 23
000
FTUS43 KBIS 180630 AAC
TAFBIS
TAF AMD
KBIS 180630Z 1807/1906 13006KT P6SM VCSH OVC050
      TEMPO 1807/1809 3SM -SN OVC030
     FM180900 10009KT 5SM -SN SCT030 OVC060
     FM181200 05010G18KT 1SM BR VCSH OVC015
     FM181700 02011G19KT P6SM BKN020
     FM190300 01008KT P6SM OVC020=

USA.gov is the U.S. government's official web portal to all federal, state and local government web resources and services.